createdAt,value
2019-04-03T00:01:49.231Z,10.10
2019-04-03T00:04:20.923Z,10.17
2019-04-03T00:06:52.800Z,8.87
2019-04-03T00:09:24.418Z,9.43
2019-04-03T00:11:56.058Z,9.17
2019-04-03T00:14:27.735Z,10.33
2019-04-03T00:16:59.222Z,9.50
2019-04-03T00:19:30.705Z,10.30
2019-04-03T00:22:03.297Z,10.03
2019-04-03T00:24:35.913Z,9.33
2019-04-03T00:27:07.656Z,9.67
2019-04-03T00:29:39.242Z,10.73
2019-04-03T00:32:10.967Z,10.13
2019-04-03T00:34:42.620Z,10.40
2019-04-03T00:37:14.221Z,10.63
2019-04-03T00:39:45.762Z,11.07
2019-04-03T00:42:17.379Z,11.10
2019-04-03T00:44:49.000Z,10.70
2019-04-03T00:47:20.560Z,11.10
2019-04-03T00:49:52.113Z,11.13
2019-04-03T00:52:23.825Z,9.83
2019-04-03T00:54:56.515Z,10.43
2019-04-03T00:57:28.651Z,10.67
2019-04-03T01:00:00.176Z,10.23
2019-04-03T01:02:31.770Z,10.30
2019-04-03T01:05:04.105Z,11.57
2019-04-03T01:07:35.717Z,11.13
2019-04-03T01:10:08.474Z,11.33
2019-04-03T01:12:40.010Z,10.10
2019-04-03T01:15:11.788Z,9.97
2019-04-03T01:17:43.440Z,10.20
2019-04-03T01:20:16.555Z,10.47
2019-04-03T01:22:48.257Z,11.53
2019-04-03T01:25:20.003Z,10.27
2019-04-03T01:27:51.508Z,10.77
2019-04-03T01:30:24.665Z,9.50
2019-04-03T01:32:56.315Z,9.23
2019-04-03T01:35:27.948Z,9.87
2019-04-03T01:37:59.679Z,9.87
2019-04-03T01:40:31.386Z,10.10
2019-04-03T01:43:02.878Z,9.13
2019-04-03T01:45:34.398Z,9.77
2019-04-03T01:48:06.113Z,10.67
2019-04-03T01:50:38.767Z,10.97
2019-04-03T01:53:10.990Z,10.83
2019-04-03T01:55:42.688Z,14.03
2019-04-03T01:58:14.322Z,13.80
2019-04-03T02:00:45.794Z,14.27
2019-04-03T02:03:17.325Z,12.60
2019-04-03T02:05:48.887Z,11.97
2019-04-03T02:08:20.797Z,10.90
2019-04-03T02:10:52.609Z,10.13
2019-04-03T02:13:24.203Z,11.47
2019-04-03T02:15:55.835Z,11.60
2019-04-03T02:18:27.417Z,11.43
2019-04-03T02:20:59.430Z,11.60
2019-04-03T02:23:31.260Z,11.60
2019-04-03T02:26:03.114Z,11.33
2019-04-03T02:28:35.254Z,10.90
2019-04-03T02:31:07.113Z,10.60
2019-04-03T02:33:38.691Z,10.30
2019-04-03T02:36:12.210Z,11.40
2019-04-03T02:38:43.550Z,11.50
2019-04-03T02:41:16.318Z,11.13
2019-04-03T02:43:47.859Z,11.73
2019-04-03T02:46:19.567Z,11.27
2019-04-03T02:48:51.362Z,11.43
2019-04-03T02:51:23.051Z,11.67
2019-04-03T02:53:54.555Z,14.03
2019-04-03T02:56:26.172Z,12.90
2019-04-03T02:58:57.686Z,12.63
2019-04-03T03:01:29.254Z,12.03
2019-04-03T03:04:01.003Z,12.33
2019-04-03T03:06:33.641Z,11.70
2019-04-03T03:09:06.396Z,11.47
2019-04-03T03:11:37.942Z,11.03
2019-04-03T03:14:09.696Z,11.17
2019-04-03T03:16:41.592Z,10.97
2019-04-03T03:19:14.055Z,10.70
2019-04-03T03:21:46.292Z,11.63
2019-04-03T03:24:17.998Z,12.73
2019-04-03T03:26:49.717Z,12.00
2019-04-03T03:29:25.083Z,12.00
2019-04-03T03:32:12.735Z,12.77
2019-04-03T03:34:49.307Z,12.70
2019-04-03T03:37:03.329Z,14.07
2019-04-03T03:39:35.107Z,14.20
2019-04-03T03:42:06.666Z,13.30
2019-04-03T03:44:40.696Z,12.80
2019-04-03T03:47:11.502Z,12.77
2019-04-03T03:49:43.174Z,11.87
2019-04-03T03:52:15.655Z,12.17
2019-04-03T03:54:49.635Z,11.77
2019-04-03T03:57:20.394Z,12.97
2019-04-03T03:59:52.808Z,14.37
2019-04-03T04:02:24.811Z,14.20
2019-04-03T04:04:56.456Z,13.57
2019-04-03T04:07:28.077Z,13.50
2019-04-03T04:09:59.669Z,14.10
2019-04-03T04:12:31.318Z,13.17
2019-04-03T04:15:03.258Z,13.70
2019-04-03T04:17:35.245Z,12.97
2019-04-03T04:20:07.705Z,13.30
2019-04-03T04:22:39.698Z,12.77
2019-04-03T04:25:11.332Z,12.20
2019-04-03T04:27:42.968Z,16.87
2019-04-03T04:30:15.801Z,17.67
2019-04-03T04:32:47.631Z,19.13
2019-04-03T04:35:21.490Z,16.83
2019-04-03T04:37:55.401Z,17.00
2019-04-03T04:40:25.659Z,14.67
2019-04-03T04:42:57.198Z,13.77
2019-04-03T04:45:28.619Z,13.57
2019-04-03T04:48:00.302Z,13.80
2019-04-03T04:50:31.951Z,13.80
2019-04-03T04:53:03.481Z,13.53
2019-04-03T04:55:35.927Z,14.10
2019-04-03T04:58:07.724Z,13.70
2019-04-03T05:00:39.474Z,15.17
2019-04-03T05:03:11.048Z,13.37
2019-04-03T05:05:42.775Z,13.17
2019-04-03T05:08:14.346Z,13.27
2019-04-03T05:10:48.634Z,14.23
2019-04-03T05:13:19.297Z,14.13
2019-04-03T05:15:53.197Z,13.87
2019-04-03T05:18:24.027Z,15.67
2019-04-03T05:20:55.646Z,15.33
2019-04-03T05:23:27.792Z,16.70
2019-04-03T05:26:01.934Z,17.87
2019-04-03T05:28:34.067Z,16.33
2019-04-03T05:31:07.953Z,16.40
2019-04-03T05:33:41.226Z,16.20
2019-04-03T05:36:12.950Z,16.63
2019-04-03T05:38:44.418Z,16.20
2019-04-03T05:41:16.102Z,17.43
2019-04-03T05:43:47.560Z,14.90
2019-04-03T05:46:19.882Z,13.30
2019-04-03T05:48:51.484Z,14.50
2019-04-03T05:51:23.024Z,13.07
2019-04-03T05:53:54.629Z,14.03
2019-04-03T05:56:26.184Z,12.87
2019-04-03T05:59:01.335Z,14.13
2019-04-03T06:01:31.343Z,12.53
2019-04-03T06:04:03.055Z,13.77
2019-04-03T06:06:34.919Z,14.67
2019-04-03T06:09:07.764Z,13.73
2019-04-03T06:11:40.765Z,14.00
2019-04-03T06:14:12.848Z,13.03
2019-04-03T06:16:44.470Z,15.93
2019-04-03T06:19:16.167Z,16.33
2019-04-03T06:21:48.308Z,15.07
2019-04-03T06:24:20.479Z,14.63
2019-04-03T06:26:52.103Z,12.77
2019-04-03T06:29:23.830Z,13.23
2019-04-03T06:31:55.915Z,13.23
2019-04-03T06:34:28.887Z,13.37
2019-04-03T06:37:00.650Z,11.87
2019-04-03T06:39:32.369Z,12.43
2019-04-03T06:42:03.943Z,13.53
2019-04-03T06:44:35.603Z,13.00
2019-04-03T06:47:07.059Z,13.13
2019-04-03T06:49:40.255Z,12.67
2019-04-03T06:52:13.740Z,12.10
2019-04-03T06:54:45.286Z,12.90
2019-04-03T06:57:16.987Z,13.18
2019-04-03T06:59:48.934Z,13.53
2019-04-03T07:02:20.759Z,12.70
2019-04-03T07:04:52.394Z,11.95
2019-04-03T07:07:32.946Z,13.08
2019-04-03T07:09:57.366Z,12.30
2019-04-03T07:12:29.352Z,12.00
2019-04-03T07:15:01.036Z,13.30
2019-04-03T07:17:33.012Z,12.40
2019-04-03T07:20:13.606Z,13.10
2019-04-03T07:22:39.758Z,14.05
2019-04-03T07:25:11.538Z,12.20
2019-04-03T07:27:43.226Z,12.80
2019-04-03T07:30:17.035Z,12.70
2019-04-03T07:32:48.423Z,12.37
2019-04-03T07:35:20.063Z,11.48
2019-04-03T07:37:52.050Z,11.88
2019-04-03T07:40:23.822Z,11.78
2019-04-03T07:42:56.334Z,11.93
2019-04-03T07:45:28.792Z,11.65
2019-04-03T07:48:01.299Z,13.03
2019-04-03T07:50:36.109Z,11.68
2019-04-03T07:53:06.683Z,13.00
2019-04-03T07:55:39.856Z,12.18
2019-04-03T07:58:11.434Z,11.78
2019-04-03T08:00:43.084Z,11.90
2019-04-03T08:03:14.857Z,12.78
2019-04-03T08:05:46.616Z,12.93
2019-04-03T08:08:18.203Z,11.83
2019-04-03T08:10:49.804Z,13.50
2019-04-03T08:13:21.403Z,12.47
2019-04-03T08:15:53.066Z,13.00
2019-04-03T08:18:26.501Z,12.40
2019-04-03T08:21:01.539Z,13.95
2019-04-03T08:23:31.714Z,13.65
2019-04-03T08:26:04.078Z,15.00
2019-04-03T08:28:35.664Z,14.75
2019-04-03T08:31:10.456Z,14.30
2019-04-03T08:33:40.632Z,15.05
2019-04-03T08:36:23.132Z,15.35
2019-04-03T08:38:45.783Z,13.48
2019-04-03T08:41:17.587Z,16.20
2019-04-03T08:43:49.386Z,11.85
2019-04-03T08:46:20.890Z,11.15
2019-04-03T08:48:54.704Z,11.78
2019-04-03T08:51:25.802Z,11.63
2019-04-03T08:53:57.577Z,11.88
2019-04-03T08:56:29.478Z,13.90
2019-04-03T08:59:01.115Z,12.40
2019-04-03T09:01:35.944Z,11.33
2019-04-03T09:04:06.106Z,11.22
2019-04-03T09:06:37.732Z,10.15
2019-04-03T09:09:11.517Z,11.25
2019-04-03T09:11:43.592Z,18.52
2019-04-03T09:14:15.350Z,11.85
2019-04-03T09:16:47.033Z,10.15
2019-04-03T09:19:18.972Z,10.38
2019-04-03T09:21:51.663Z,11.97
2019-04-03T09:24:23.324Z,12.53
2019-04-03T09:26:54.886Z,10.65
2019-04-03T09:29:26.823Z,10.15
2019-04-03T09:31:58.487Z,10.60
2019-04-03T09:34:32.252Z,11.43
2019-04-03T09:37:06.378Z,11.12
2019-04-03T09:39:37.711Z,11.15
2019-04-03T09:42:09.470Z,10.20
2019-04-03T09:44:41.121Z,10.18
2019-04-03T09:47:12.863Z,10.08
2019-04-03T09:49:44.858Z,10.90
2019-04-03T09:52:16.475Z,11.90
2019-04-03T09:54:48.021Z,12.18
2019-04-03T09:57:19.915Z,11.83
2019-04-03T09:59:51.789Z,11.10
2019-04-03T10:02:23.460Z,11.43
2019-04-03T10:04:57.332Z,11.95
2019-04-03T10:07:30.970Z,11.60
2019-04-03T10:10:02.005Z,14.20
2019-04-03T10:12:35.034Z,13.25
2019-04-03T10:15:08.116Z,11.33
2019-04-03T10:17:39.748Z,11.35
2019-04-03T10:20:11.375Z,11.90
2019-04-03T10:22:43.019Z,12.25
2019-04-03T10:25:14.634Z,13.25
2019-04-03T11:23:58.395Z,12.23
2019-04-03T11:26:30.136Z,11.75
2019-04-03T11:29:02.123Z,12.40
2019-04-03T11:31:40.670Z,12.00
2019-04-03T11:34:07.258Z,12.13
2019-04-03T11:36:39.319Z,13.08
2019-04-03T11:39:15.043Z,14.20
2019-04-03T11:41:43.981Z,13.68
2019-04-03T11:44:15.456Z,11.33
2019-04-03T11:46:47.174Z,12.60
2019-04-03T11:49:21.411Z,11.90
2019-04-03T11:51:53.072Z,11.05
2019-04-03T11:54:25.135Z,11.93
2019-04-03T11:56:57.218Z,11.15
2019-04-03T11:59:29.348Z,12.45
2019-04-03T12:02:01.160Z,12.37
2019-04-03T12:04:32.881Z,11.45
2019-04-03T12:07:04.497Z,11.75
2019-04-03T12:09:36.226Z,18.12
2019-04-03T12:12:10.501Z,14.25
2019-04-03T12:14:41.384Z,11.30
2019-04-03T12:17:13.499Z,11.50
2019-04-03T12:19:46.098Z,12.37
2019-04-03T12:22:17.845Z,13.98
2019-04-03T12:24:49.581Z,10.85
2019-04-03T12:27:21.220Z,11.40
2019-04-03T12:29:54.581Z,11.25
2019-04-03T12:32:36.667Z,11.88
2019-04-03T12:34:59.464Z,13.05
2019-04-03T12:37:31.363Z,11.12
2019-04-03T12:40:03.579Z,13.35
2019-04-03T12:42:35.714Z,12.58
2019-04-03T12:45:07.915Z,11.73
2019-04-03T12:47:42.620Z,13.43
2019-04-03T12:50:13.503Z,12.58
2019-04-03T12:52:45.988Z,11.50
2019-04-03T12:55:17.554Z,10.95
2019-04-03T12:57:49.530Z,15.23
2019-04-03T13:00:23.141Z,21.70
2019-04-03T13:02:55.395Z,15.63
2019-04-03T13:05:27.481Z,13.03
2019-04-03T13:07:59.818Z,12.68
2019-04-03T13:10:41.357Z,15.40
2019-04-03T13:13:05.627Z,14.50
2019-04-03T13:15:38.090Z,12.00
2019-04-03T13:18:10.251Z,15.08
2019-04-03T13:20:43.401Z,10.88
2019-04-03T13:23:15.588Z,14.20
2019-04-03T13:25:47.814Z,12.73
2019-04-03T13:28:19.640Z,11.35
2019-04-03T13:30:51.259Z,13.32
2019-04-03T13:33:22.767Z,12.68
2019-04-03T13:35:54.583Z,14.33
2019-04-03T13:38:28.445Z,14.70
2019-04-03T13:41:00.545Z,12.03
2019-04-03T13:43:32.544Z,12.00
2019-04-03T13:46:05.036Z,13.35
2019-04-03T13:48:37.870Z,13.65
2019-04-03T13:51:12.210Z,14.93
2019-04-03T13:53:43.110Z,13.05
2019-04-03T13:56:15.016Z,10.43
2019-04-03T13:58:47.004Z,17.30
2019-04-03T14:01:19.667Z,13.08
2019-04-03T14:03:51.658Z,13.25
2019-04-03T14:06:25.087Z,11.18
2019-04-03T14:08:57.340Z,12.47
2019-04-03T14:11:31.258Z,10.82
2019-04-03T14:14:03.313Z,11.75
2019-04-03T14:16:35.570Z,14.30
2019-04-03T14:19:07.295Z,14.38
2019-04-03T14:21:39.023Z,13.65
2019-04-03T14:24:10.527Z,14.23
2019-04-03T14:26:44.301Z,13.08
2019-04-03T14:29:15.822Z,18.17
2019-04-03T14:31:48.552Z,16.23
2019-04-03T14:34:21.231Z,13.05
2019-04-03T14:36:53.085Z,12.60
2019-04-03T14:39:25.067Z,13.08
2019-04-03T14:41:56.659Z,14.78
2019-04-03T14:44:28.417Z,12.95
2019-04-03T14:47:00.245Z,12.37
2019-04-03T14:49:33.275Z,13.35
2019-04-03T14:52:05.272Z,11.22
2019-04-03T14:54:37.153Z,12.50
2019-04-03T14:57:19.749Z,16.20
2019-04-03T14:59:43.124Z,14.70
2019-04-03T15:02:14.770Z,13.22
2019-04-03T15:04:46.617Z,12.30
2019-04-03T15:07:18.922Z,12.00
2019-04-03T15:09:50.480Z,11.88
2019-04-03T15:12:22.230Z,11.88
2019-04-03T15:14:54.510Z,11.22
2019-04-03T15:17:26.991Z,13.85
2019-04-03T15:19:58.593Z,13.95
2019-04-03T15:22:32.477Z,12.40
2019-04-03T15:25:03.423Z,13.28
2019-04-03T15:27:35.040Z,12.33
2019-04-03T15:30:11.224Z,13.50
2019-04-03T15:32:42.935Z,16.37
2019-04-03T15:35:14.858Z,13.68
2019-04-03T15:37:46.481Z,12.63
2019-04-03T15:40:18.027Z,12.03
2019-04-03T15:42:49.742Z,12.03
2019-04-03T15:45:22.468Z,11.75
2019-04-03T15:47:57.096Z,11.45
2019-04-03T15:50:30.192Z,11.80
2019-04-03T15:53:01.317Z,12.40
2019-04-03T15:55:33.000Z,12.15
2019-04-03T15:58:04.914Z,13.75
2019-04-03T16:00:37.070Z,17.30
2019-04-03T16:03:08.756Z,13.65
2019-04-03T16:05:40.816Z,11.57
2019-04-03T16:08:13.320Z,12.65
2019-04-03T16:10:45.561Z,12.25
2019-04-03T16:13:17.752Z,11.97
2019-04-03T16:15:49.327Z,11.33
2019-04-03T16:18:21.268Z,11.05
2019-04-03T16:20:52.866Z,10.93
2019-04-03T16:23:24.551Z,11.85
2019-04-03T16:25:56.508Z,13.18
2019-04-03T16:28:28.615Z,13.22
2019-04-03T16:31:00.467Z,18.02
2019-04-03T16:33:35.075Z,13.50
2019-04-03T16:36:06.901Z,12.82
2019-04-03T16:38:39.190Z,14.70
2019-04-03T16:41:11.794Z,15.98
2019-04-03T16:43:43.624Z,22.52
2019-04-03T16:46:15.675Z,20.82
2019-04-03T16:48:49.904Z,19.67
2019-04-03T16:51:21.406Z,17.45
2019-04-03T16:53:53.297Z,14.33
2019-04-03T16:56:25.253Z,14.65
2019-04-03T16:58:59.760Z,16.35
2019-04-03T17:01:30.706Z,16.70
2019-04-03T17:04:03.930Z,17.17
2019-04-03T17:06:35.651Z,14.30
2019-04-03T17:09:08.790Z,14.13
2019-04-03T17:11:43.488Z,15.55
2019-04-03T17:14:13.651Z,15.10
2019-04-03T17:16:46.282Z,19.55
2019-04-03T17:19:18.912Z,15.88
2019-04-03T17:21:50.770Z,17.48
2019-04-03T17:24:23.567Z,16.23
2019-04-03T17:26:58.297Z,14.65
2019-04-03T17:29:29.228Z,15.65
2019-04-03T17:32:01.014Z,15.85
2019-04-03T17:34:33.087Z,15.72
2019-04-03T17:37:04.938Z,16.85
2019-04-03T17:39:37.850Z,15.53
2019-04-03T17:42:09.497Z,15.63
2019-04-03T17:44:42.868Z,13.80
2019-04-03T17:47:14.661Z,19.50
2019-04-03T17:49:46.288Z,16.87
2019-04-03T17:52:18.049Z,15.25
2019-04-03T17:54:49.615Z,15.35
2019-04-03T17:57:21.142Z,14.98
2019-04-03T17:59:52.769Z,13.85
2019-04-03T18:02:24.697Z,13.75
2019-04-03T18:04:57.793Z,14.28
2019-04-03T18:07:29.331Z,15.95
2019-04-03T18:10:01.162Z,15.00
2019-04-03T18:12:32.962Z,15.53
2019-04-03T18:15:07.862Z,15.95
2019-04-03T18:17:39.686Z,16.60
2019-04-03T18:20:13.287Z,16.87
2019-04-03T18:22:44.766Z,17.95
2019-04-03T18:25:16.244Z,16.62
2019-04-03T18:27:47.810Z,16.05
2019-04-03T18:30:19.693Z,16.87
2019-04-03T18:32:51.393Z,18.45
2019-04-03T18:35:25.444Z,15.08
2019-04-03T18:37:56.249Z,15.83
2019-04-03T18:40:32.841Z,13.38
2019-04-03T18:43:16.888Z,13.58
2019-04-03T18:45:58.478Z,14.85
2019-04-03T18:48:34.589Z,14.63
2019-04-03T18:51:07.224Z,13.50
2019-04-03T18:53:40.647Z,14.35
2019-04-03T18:56:13.772Z,14.65
2019-04-03T18:58:53.130Z,17.12
2019-04-03T19:01:26.279Z,14.83
2019-04-03T19:03:57.871Z,14.55
2019-04-03T19:06:29.523Z,15.08
2019-04-03T19:09:09.771Z,14.53
2019-04-03T19:11:36.051Z,15.25
2019-04-03T19:14:07.844Z,14.95
2019-04-03T19:16:45.266Z,16.15
2019-04-03T19:19:16.326Z,15.45
2019-04-03T19:21:47.985Z,14.68
2019-04-03T19:24:19.574Z,15.25
2019-04-03T19:26:51.202Z,14.60
2019-04-03T19:29:22.891Z,15.60
2019-04-03T19:31:55.356Z,13.72
2019-04-03T19:34:27.040Z,16.48
2019-04-03T19:36:58.855Z,15.10
2019-04-03T19:39:30.603Z,15.85
2019-04-03T19:42:02.566Z,16.95
2019-04-03T19:44:34.117Z,16.57
2019-04-03T19:47:06.927Z,16.23
2019-04-03T19:49:40.198Z,15.75
2019-04-03T19:52:13.072Z,15.32
2019-04-03T19:54:45.175Z,15.03
2019-04-03T19:57:16.831Z,16.67
2019-04-03T19:59:49.093Z,15.25
2019-04-03T20:02:21.259Z,18.75
2019-04-03T20:04:52.851Z,17.98
2019-04-03T20:07:24.835Z,17.07
2019-04-03T20:09:58.364Z,16.87
2019-04-03T20:12:30.478Z,13.95
2019-04-03T20:15:02.746Z,14.15
2019-04-03T20:17:34.765Z,14.38
2019-04-03T20:20:07.684Z,13.78
2019-04-03T20:22:57.843Z,14.78
2019-04-03T20:25:35.688Z,13.85
2019-04-03T20:28:07.949Z,15.50
2019-04-03T20:30:39.589Z,16.52
2019-04-03T20:33:11.717Z,16.00
2019-04-03T20:35:43.749Z,15.30
2019-04-03T20:38:15.640Z,13.95
2019-04-03T20:40:47.274Z,15.32
2019-04-03T20:43:18.888Z,15.78
2019-04-03T20:45:50.389Z,16.62
2019-04-03T20:48:22.970Z,14.95
2019-04-03T20:50:54.483Z,22.75
2019-04-03T20:53:26.017Z,28.35
2019-04-03T20:55:58.087Z,27.40
2019-04-03T20:58:30.479Z,23.35
2019-04-03T21:01:06.839Z,19.65
2019-04-03T21:03:35.284Z,16.70
2019-04-03T21:06:06.724Z,18.52
2019-04-03T21:08:38.345Z,17.92
2019-04-03T21:11:09.896Z,17.15
2019-04-03T21:13:42.536Z,15.80
2019-04-03T21:16:15.013Z,16.17
2019-04-03T21:18:47.667Z,17.37
2019-04-03T21:21:19.523Z,16.52
2019-04-03T21:23:50.999Z,17.00
2019-04-03T21:26:22.625Z,16.30
2019-04-03T21:28:54.159Z,15.45
2019-04-03T21:31:26.038Z,16.55
2019-04-03T21:33:58.278Z,15.63
2019-04-03T21:36:29.893Z,15.40
2019-04-03T21:39:01.462Z,16.17
2019-04-03T21:41:34.668Z,16.60
2019-04-03T21:44:06.205Z,15.85
2019-04-03T21:46:39.672Z,15.35
2019-04-03T21:49:11.908Z,17.95
2019-04-03T21:51:43.541Z,18.27
2019-04-03T21:54:15.096Z,16.75
2019-04-03T21:56:46.670Z,16.50
2019-04-03T21:59:18.222Z,17.90
2019-04-03T22:01:49.888Z,15.65
2019-04-03T22:04:22.787Z,15.68
2019-04-03T22:06:57.633Z,14.38
2019-04-03T22:09:28.843Z,14.05
2019-04-03T22:12:01.577Z,14.78
2019-04-03T22:14:34.217Z,15.10
2019-04-03T22:17:05.815Z,14.47
2019-04-03T22:19:37.421Z,14.47
2019-04-03T22:22:08.997Z,15.30
2019-04-03T22:24:40.711Z,13.80
2019-04-03T22:27:12.175Z,14.07
2019-04-03T22:29:44.080Z,16.02
2019-04-03T22:32:15.626Z,15.13
2019-04-03T22:34:47.249Z,15.72
2019-04-03T22:37:18.940Z,14.45
2019-04-03T22:39:50.789Z,14.98
2019-04-03T22:42:22.235Z,14.33
2019-04-03T22:44:53.874Z,14.73
2019-04-03T22:47:25.753Z,14.75
2019-04-03T22:49:57.443Z,15.15
2019-04-03T22:52:29.056Z,15.85
2019-04-03T22:55:00.766Z,14.63
2019-04-03T22:57:32.619Z,13.78
2019-04-03T23:00:06.647Z,14.40
2019-04-03T23:02:38.858Z,14.45
2019-04-03T23:05:10.455Z,14.40
2019-04-03T23:07:42.430Z,14.43
2019-04-03T23:10:14.014Z,14.38
2019-04-03T23:12:45.831Z,14.73
2019-04-03T23:15:17.483Z,14.47
2019-04-03T23:17:49.250Z,14.78
2019-04-03T23:20:22.164Z,16.50
2019-04-03T23:22:56.344Z,15.83
2019-04-03T23:25:27.831Z,14.83
2019-04-03T23:28:02.990Z,14.73
2019-04-03T23:30:35.511Z,15.35
2019-04-03T23:33:08.292Z,14.15
2019-04-03T23:35:40.574Z,15.48
2019-04-03T23:38:12.220Z,14.23
2019-04-03T23:40:44.037Z,15.25
2019-04-03T23:43:15.656Z,15.25
2019-04-03T23:45:47.301Z,14.63
2019-04-03T23:48:20.043Z,16.05
2019-04-03T23:50:52.721Z,15.72
2019-04-03T23:53:24.820Z,15.60
2019-04-03T23:55:56.522Z,15.55
2019-04-03T23:58:28.129Z,14.45
